Time;durP1;ratioP1;P1;durP2;ratioP2;P2;SDS_P1;SDS_P2;PMS_P1;PMS_P2;Temp;Humidity;BMP_temperature;BMP_pressure;BME280_temperature;BME280_humidity;BME280_pressure;Samples;Min_cycle;Max_cycle;Signal;HPM_P1;HPM_P2
2021/04/06 00:00:37;;;;;;;9.15;1.65;;;0.60;92.10;;;;;;5072522;28;20024;-46
2021/04/06 00:03:05;;;;;;;7.93;1.30;;;0.60;92.10;;;;;;5072502;28;20503;-46
2021/04/06 00:05:31;;;;;;;3.45;1.27;;;0.60;92.00;;;;;;5072780;28;20066;-43
2021/04/06 00:07:59;;;;;;;5.47;1.38;;;0.50;92.10;;;;;;5072660;28;20052;-45
2021/04/06 00:10:43;;;;;;;12.57;1.63;;;0.50;92.00;;;;;;5072647;28;20016;-43
2021/04/06 00:13:09;;;;;;;4.97;1.30;;;0.50;92.40;;;;;;5072667;28;20320;-44
2021/04/06 00:15:37;;;;;;;5.97;1.98;;;0.40;92.40;;;;;;5071122;28;20090;-45
2021/04/06 00:18:05;;;;;;;5.55;1.00;;;0.40;92.80;;;;;;5072326;28;20055;-44
2021/04/06 00:20:34;;;;;;;7.80;1.25;;;0.30;92.80;;;;;;5072681;28;20359;-46
2021/04/06 00:23:02;;;;;;;3.13;0.88;;;0.30;92.80;;;;;;5072562;28;20024;-43
2021/04/06 00:25:32;;;;;;;7.22;1.67;;;0.30;93.20;;;;;;5072736;28;20442;-45
2021/04/06 00:28:02;;;;;;;3.90;1.13;;;0.20;93.30;;;;;;5072356;28;20468;-43
2021/04/06 00:30:32;;;;;;;4.28;1.08;;;0.20;93.20;;;;;;5072554;28;20024;-43
2021/04/06 00:33:05;;;;;;;6.20;1.50;;;0.20;93.20;;;;;;5072058;28;20013;-44
2021/04/06 00:35:34;;;;;;;7.80;1.13;;;0.10;93.50;;;;;;5072535;28;20027;-43
2021/04/06 00:38:02;;;;;;;6.72;1.27;;;0.10;93.60;;;;;;5072512;28;20068;-43
2021/04/06 00:40:31;;;;;;;5.10;1.00;;;0.10;93.70;;;;;;5081900;28;20367;-44
2021/04/06 00:43:03;;;;;;;9.90;1.40;;;0.10;94.00;;;;;;5091313;28;20024;-43
2021/04/06 00:45:30;;;;;;;5.47;1.40;;;0.10;93.70;;;;;;5092702;28;20031;-44
2021/04/06 00:48:13;;;;;;;11.70;1.23;;;0.10;94.00;;;;;;5091899;28;20059;-43
2021/04/06 00:50:44;;;;;;;4.55;0.70;;;0.10;94.10;;;;;;5089052;28;20059;-43
2021/04/06 00:53:10;;;;;;;1.17;0.47;;;0.00;94.30;;;;;;5072128;28;20058;-42
2021/04/06 00:55:40;;;;;;;4.28;0.77;;;0.00;94.10;;;;;;5072188;28;20052;-43
2021/04/06 00:58:25;;;;;;;8.27;1.63;;;0.00;94.20;;;;;;5072288;28;20028;-43
2021/04/06 01:01:02;;;;;;;2.88;0.80;;;0.00;94.60;;;;;;5071362;28;20078;-44
2021/04/06 01:03:27;;;;;;;;;;;0.00;94.50;;;;;;5072332;28;20021;-44
2021/04/06 01:05:58;;;;;;;4.00;0.50;;;-0.10;95.70;;;;;;5072122;28;20256;-43
2021/04/06 01:08:27;;;;;;;6.13;1.10;;;-0.10;95.30;;;;;;5071979;28;20471;-45
2021/04/06 01:10:52;;;;;;;4.03;1.25;;;-0.10;94.50;;;;;;5072219;28;20139;-44
2021/04/06 01:13:19;;;;;;;7.30;1.40;;;-0.10;95.10;;;;;;5072091;28;20543;-43
2021/04/06 01:15:45;;;;;;;3.58;1.00;;;-0.10;95.00;;;;;;5071224;28;20017;-45
2021/04/06 01:18:10;;;;;;;5.85;1.52;;;-0.10;95.00;;;;;;5072002;28;20036;-43
2021/04/06 01:20:36;;;;;;;4.65;1.10;;;-0.10;94.90;;;;;;5071982;28;20024;-44
2021/04/06 01:23:10;;;;;;;9.90;1.85;;;-0.10;95.50;;;;;;5071961;28;20035;-44
2021/04/06 01:25:41;;;;;;;5.18;0.98;;;-0.10;95.40;;;;;;5072046;28;20032;-47
2021/04/06 01:28:11;;;;;;;9.05;1.67;;;-0.10;95.30;;;;;;5073922;28;20025;-43
2021/04/06 01:30:55;;;;;;;2.42;0.70;;;-0.20;95.70;;;;;;5074602;28;20024;-46
2021/04/06 01:33:26;;;;;;;4.80;1.10;;;-0.20;96.00;;;;;;5075478;28;20372;-44
2021/04/06 01:35:55;;;;;;;4.72;1.20;;;-0.20;95.40;;;;;;5075461;28;20078;-43
2021/04/06 01:38:25;;;;;;;5.25;1.20;;;-0.20;95.80;;;;;;5075382;28;20037;-43
2021/04/06 01:40:51;;;;;;;8.50;1.77;;;-0.20;96.60;;;;;;5088189;28;20062;-43
2021/04/06 01:43:19;;;;;;;5.57;1.23;;;-0.20;96.70;;;;;;5095453;28;20024;-45
2021/04/06 01:45:47;;;;;;;7.53;1.13;;;-0.20;96.30;;;;;;5094615;28;20020;-45
2021/04/06 01:48:17;;;;;;;7.10;1.33;;;-0.20;97.30;;;;;;5095359;28;20528;-43
2021/04/06 01:50:51;;;;;;;5.90;1.00;;;-0.20;96.50;;;;;;5091374;28;20393;-45
2021/04/06 01:53:17;;;;;;;8.40;1.42;;;-0.20;96.80;;;;;;5075125;28;20111;-43
2021/04/06 01:55:49;;;;;;;4.72;1.30;;;-0.10;97.00;;;;;;5074927;28;20395;-45
2021/04/06 01:58:18;;;;;;;7.82;1.13;;;-0.10;96.50;;;;;;5075118;28;20062;-45
2021/04/06 02:03:16;;;;;;;4.88;1.30;;;-0.10;97.00;;;;;;5075078;28;20024;-43
2021/04/06 02:05:43;;;;;;;2.70;1.05;;;-0.10;96.60;;;;;;5074946;28;20020;-45
2021/04/06 02:08:13;;;;;;;5.38;1.25;;;-0.10;97.00;;;;;;5074752;28;20020;-43
2021/04/06 02:10:39;;;;;;;5.90;1.23;;;-0.20;96.60;;;;;;5075036;28;20095;-46
2021/04/06 02:13:12;;;;;;;5.05;1.17;;;-0.20;97.20;;;;;;5074793;28;20021;-44
2021/04/06 02:15:41;;;;;;;7.10;1.70;;;-0.30;97.60;;;;;;5073934;28;20028;-45
2021/04/06 02:18:26;;;;;;;4.65;1.38;;;-0.30;97.50;;;;;;5074288;28;20422;-43
2021/04/06 02:20:57;;;;;;;3.33;0.85;;;-0.30;98.60;;;;;;5053942;28;20636;-44
2021/04/06 02:23:24;;;;;;;3.85;1.27;;;-0.40;98.40;;;;;;5054669;28;20029;-45
2021/04/06 02:25:58;;;;;;;1.60;0.85;;;-0.40;98.30;;;;;;5054526;28;20387;-43
2021/04/06 02:28:25;;;;;;;5.20;1.55;;;-0.40;98.50;;;;;;5053269;28;20029;-43
2021/04/06 02:30:56;;;;;;;8.40;2.05;;;-0.50;99.60;;;;;;5053497;28;20043;-44
2021/04/06 02:33:27;;;;;;;2.05;0.90;;;-0.50;99.40;;;;;;5054490;28;20032;-43
2021/04/06 02:36:07;;;;;;;9.75;1.27;;;-0.50;99.30;;;;;;5054211;28;20024;-43
2021/04/06 02:38:43;;;;;;;2.78;0.80;;;-0.60;99.20;;;;;;5054099;28;20104;-43
2021/04/06 02:41:14;;;;;;;3.50;0.90;;;-0.60;99.90;;;;;;5084903;28;20016;-43
2021/04/06 02:43:51;;;;;;;5.55;0.85;;;-0.60;99.60;;;;;;5094427;28;20027;-43
2021/04/06 02:46:24;;;;;;;5.53;1.17;;;-0.60;99.90;;;;;;5093458;28;20047;-42
2021/04/06 02:48:54;;;;;;;6.15;0.88;;;-0.60;99.90;;;;;;5094310;28;20020;-45
2021/04/06 02:51:19;;;;;;;3.97;0.88;;;-0.60;99.90;;;;;;5085065;28;20129;-43
2021/04/06 02:53:50;;;;;;;10.63;1.30;;;-0.70;99.90;;;;;;5073997;28;20039;-42
2021/04/06 02:56:36;;;;;;;3.33;1.42;;;-0.70;99.90;;;;;;5073787;28;20085;-45
2021/04/06 02:59:15;;;;;;;;;;;-0.80;99.90;;;;;;5074416;28;20020;-47
2021/04/06 03:01:42;;;;;;;4.35;1.70;;;-0.70;99.90;;;;;;5072916;28;19908;-45
2021/04/06 03:04:25;;;;;;;5.05;1.20;;;-0.80;99.90;;;;;;5073917;28;20526;-43
2021/04/06 03:06:55;;;;;;;5.55;0.90;;;-0.80;99.90;;;;;;5073761;28;20527;-45
2021/04/06 03:09:23;;;;;;;4.22;1.00;;;-0.90;99.90;;;;;;5073874;28;20086;-44
2021/04/06 03:11:53;;;;;;;4.68;1.13;;;-1.00;99.90;;;;;;5073497;28;20476;-43
2021/04/06 03:14:23;;;;;;;1.95;0.90;;;-1.00;99.90;;;;;;5073651;28;20028;-43
2021/04/06 03:16:51;;;;;;;8.30;1.40;;;-1.10;99.90;;;;;;5072543;28;20024;-44
2021/04/06 03:19:17;;;;;;;4.05;1.10;;;-1.10;99.90;;;;;;5073561;28;20021;-43
2021/04/06 03:21:43;;;;;;;5.97;1.02;;;-1.10;99.90;;;;;;5073308;28;20468;-44
2021/04/06 03:24:09;;;;;;;3.05;1.02;;;-1.20;99.90;;;;;;5073480;28;20021;-43
2021/04/06 03:26:35;;;;;;;2.95;0.98;;;-1.20;99.90;;;;;;5073336;28;20048;-45
2021/04/06 03:29:02;;;;;;;7.05;1.02;;;-1.30;99.90;;;;;;5073325;28;20024;-44
2021/04/06 03:31:31;;;;;;;3.78;0.82;;;-1.30;99.90;;;;;;5072283;28;20020;-45
2021/04/06 03:33:59;;;;;;;3.88;1.25;;;-1.30;99.90;;;;;;5073287;28;20020;-46
2021/04/06 03:36:28;;;;;;;4.75;1.30;;;-1.30;99.90;;;;;;5073227;28;20361;-45
2021/04/06 03:38:55;;;;;;;4.63;1.20;;;-1.40;99.90;;;;;;5073065;28;20067;-43
2021/04/06 03:41:27;;;;;;;1.88;1.00;;;-1.40;99.90;;;;;;5090168;28;20031;-43
2021/04/06 03:44:01;;;;;;;4.53;1.40;;;-1.40;99.90;;;;;;5093375;28;20020;-44
2021/04/06 03:46:27;;;;;;;5.35;1.33;;;-1.50;99.90;;;;;;5092385;28;20016;-43
2021/04/06 03:49:10;;;;;;;2.33;1.23;;;-1.50;99.90;;;;;;5093242;28;20016;-44
2021/04/06 03:51:36;;;;;;;5.80;1.23;;;-1.50;99.90;;;;;;5080802;28;20013;-44
2021/04/06 03:54:02;;;;;;;8.73;1.65;;;-1.50;99.90;;;;;;5072852;28;20023;-44
2021/04/06 03:56:32;;;;;;;2.88;1.35;;;-1.50;99.90;;;;;;5072745;28;20044;-46
2021/04/06 03:59:01;;;;;;;1.58;1.00;;;-1.50;99.90;;;;;;5073025;28;20035;-42
2021/04/06 04:01:27;;;;;;;5.55;1.52;;;-1.50;99.90;;;;;;5071881;28;20107;-42
2021/04/06 04:03:53;;;;;;;3.42;1.20;;;-1.50;99.90;;;;;;5072795;28;20112;-44
2021/04/06 04:06:26;;;;;;;4.82;1.30;;;-1.50;99.90;;;;;;5072782;28;20111;-42
2021/04/06 04:08:53;;;;;;;5.15;1.30;;;-1.40;99.90;;;;;;5072638;28;20099;-42
2021/04/06 04:11:20;;;;;;;4.20;1.45;;;-1.50;99.90;;;;;;5072293;28;20024;-43
2021/04/06 04:13:46;;;;;;;2.20;1.00;;;-1.40;99.90;;;;;;5072758;28;20048;-44
2021/04/06 04:16:11;;;;;;;2.00;0.90;;;-1.40;99.90;;;;;;5071811;28;20055;-44
2021/04/06 04:18:37;;;;;;;3.45;1.00;;;-1.50;99.90;;;;;;5072754;28;20032;-44
2021/04/06 04:21:03;;;;;;;6.65;1.40;;;-1.50;99.90;;;;;;5072662;28;20788;-45
2021/04/06 04:23:30;;;;;;;2.88;1.13;;;-1.50;99.90;;;;;;5072513;28;20071;-44
2021/04/06 04:25:55;;;;;;;1.90;1.10;;;-1.50;99.90;;;;;;5072480;28;20039;-42
2021/04/06 04:28:21;;;;;;;3.17;1.75;;;-1.60;99.90;;;;;;5072618;28;20033;-42
2021/04/06 04:30:48;;;;;;;5.85;1.50;;;-1.50;99.90;;;;;;5071645;28;20025;-44
2021/04/06 04:33:14;;;;;;;6.85;2.00;;;-1.50;99.90;;;;;;5072491;28;20032;-42
2021/04/06 04:35:40;;;;;;;4.47;1.33;;;-1.50;99.90;;;;;;5072503;28;20029;-42
2021/04/06 04:38:06;;;;;;;7.70;1.98;;;-1.50;99.90;;;;;;5072440;28;20020;-43
2021/04/06 04:40:32;;;;;;;3.38;1.10;;;-1.50;99.90;;;;;;5082307;28;20073;-46
2021/04/06 04:42:58;;;;;;;3.65;1.42;;;-1.40;99.90;;;;;;5092604;28;20032;-44
2021/04/06 04:45:24;;;;;;;4.38;1.95;;;-1.30;99.90;;;;;;5091168;28;20115;-43
2021/04/06 04:47:50;;;;;;;2.83;1.52;;;-1.30;99.90;;;;;;5091890;28;20514;-43
2021/04/06 04:50:17;;;;;;;5.60;1.67;;;-1.20;99.90;;;;;;5092415;28;20066;-42
2021/04/06 04:52:46;;;;;;;2.20;1.40;;;-1.10;99.90;;;;;;5072195;28;20027;-45
2021/04/06 04:55:13;;;;;;;5.40;1.95;;;-1.00;99.90;;;;;;5071965;28;20052;-43
2021/04/06 04:57:39;;;;;;;3.95;1.50;;;-0.90;99.90;;;;;;5072202;28;20028;-44
2021/04/06 05:00:06;;;;;;;3.88;1.55;;;-0.80;99.90;;;;;;5071009;28;20035;-43
2021/04/06 05:02:31;;;;;;;6.75;2.28;;;-0.70;99.90;;;;;;5072539;28;20029;-43
2021/04/06 05:04:58;;;;;;;3.58;1.73;;;-0.50;99.90;;;;;;5076145;28;20024;-44
2021/04/06 05:07:29;;;;;;;4.40;1.92;;;-0.40;99.90;;;;;;5076022;28;20032;-42
2021/04/06 05:09:54;;;;;;;6.75;1.90;;;-0.20;99.90;;;;;;5076004;28;20467;-44
2021/04/06 05:12:20;;;;;;;10.52;2.40;;;-0.10;99.90;;;;;;5075957;28;20016;-42
2021/04/06 05:14:46;;;;;;;2.67;1.52;;;0.20;99.90;;;;;;5076034;28;20059;-43
2021/04/06 05:17:13;;;;;;;5.53;2.15;;;0.30;99.90;;;;;;5073595;28;20107;-44
2021/04/06 05:19:39;;;;;;;3.90;1.85;;;0.60;99.90;;;;;;5075967;28;20025;-43
2021/04/06 05:22:04;;;;;;;2.40;1.48;;;0.90;99.90;;;;;;5075658;28;20048;-44
2021/04/06 05:24:30;;;;;;;8.57;2.58;;;1.50;99.90;;;;;;5075753;28;20514;-42
2021/04/06 05:26:55;;;;;;;7.05;1.98;;;2.50;99.00;;;;;;5075651;28;20021;-43
2021/04/06 05:29:21;;;;;;;2.28;1.33;;;3.50;95.90;;;;;;5075704;28;20016;-43
2021/04/06 05:31:46;;;;;;;7.80;2.00;;;4.60;92.60;;;;;;5074691;28;20029;-44
2021/04/06 05:34:12;;;;;;;6.38;1.88;;;5.70;90.70;;;;;;5075702;28;20039;-45
2021/04/06 05:36:37;;;;;;;5.38;1.67;;;6.60;88.50;;;;;;5075465;28;20479;-47
2021/04/06 05:39:03;;;;;;;3.88;1.70;;;7.30;84.70;;;;;;5075492;28;20325;-44
2021/04/06 05:41:29;;;;;;;5.65;1.58;;;7.90;82.20;;;;;;5093463;28;20078;-45
2021/04/06 05:44:04;;;;;;;4.82;1.40;;;8.30;80.30;;;;;;5095671;28;20554;-45
2021/04/06 05:46:32;;;;;;;3.70;1.40;;;8.70;79.30;;;;;;5094740;28;20047;-45
2021/04/06 05:49:11;;;;;;;2.40;1.30;;;9.10;76.00;;;;;;5095590;28;20582;-46
2021/04/06 05:51:38;;;;;;;3.45;1.50;;;9.60;73.20;;;;;;5083830;28;20029;-46
2021/04/06 05:54:06;;;;;;;3.05;1.55;;;10.10;74.60;;;;;;5075318;28;20024;-47
2021/04/06 05:56:32;;;;;;;3.25;1.30;;;10.60;73.10;;;;;;5074923;28;20076;-44
2021/04/06 05:58:58;;;;;;;4.63;1.50;;;10.70;70.40;;;;;;5075238;28;20134;-45
2021/04/06 06:01:27;;;;;;;2.75;1.20;;;11.00;71.30;;;;;;5074204;28;20028;-46
2021/04/06 06:03:52;;;;;;;2.42;1.10;;;11.20;70.00;;;;;;5075018;28;20111;-47
2021/04/06 06:06:18;;;;;;;2.30;1.30;;;11.50;70.00;;;;;;5075088;28;20025;-46
2021/04/06 06:08:51;;;;;;;3.20;1.67;;;11.90;68.40;;;;;;5074884;28;20020;-46
2021/04/06 06:11:17;;;;;;;3.70;1.70;;;12.10;67.70;;;;;;5074833;28;20490;-44
2021/04/06 06:13:43;;;;;;;4.05;1.33;;;12.50;67.70;;;;;;5073712;28;20036;-45
2021/04/06 06:16:21;;;;;;;1.23;1.00;;;12.90;66.80;;;;;;5073572;28;20024;-44
2021/04/06 06:18:58;;;;;;;1.98;1.38;;;13.50;64.80;;;;;;5074787;28;20068;-46
2021/04/06 06:21:45;;;;;;;1.77;1.25;;;13.70;60.30;;;;;;5074814;28;20021;-46
2021/04/06 06:24:38;;;;;;;2.90;1.27;;;14.00;58.40;;;;;;5074283;28;20146;-44
2021/04/06 06:27:37;;;;;;;4.15;1.50;;;13.50;59.90;;;;;;5074272;28;20024;-44
2021/04/06 06:30:40;;;;;;;3.30;1.20;;;12.90;60.10;;;;;;5074655;28;20388;-48
2021/04/06 06:33:16;;;;;;;2.95;1.23;;;13.00;60.00;;;;;;5073015;28;20051;-45
2021/04/06 06:35:47;;;;;;;3.72;1.40;;;12.10;60.50;;;;;;5074662;28;20025;-44
2021/04/06 06:38:30;;;;;;;4.05;1.52;;;11.50;64.10;;;;;;5074340;28;20041;-43
2021/04/06 06:41:13;;;;;;;4.55;1.52;;;11.30;65.20;;;;;;5088135;28;20047;-44
2021/04/06 06:43:42;;;;;;;2.42;1.40;;;11.90;65.20;;;;;;5075534;28;20031;-44
2021/04/06 06:46:29;;;;;;;4.85;1.63;;;11.40;64.50;;;;;;5073105;28;20510;-48
2021/04/06 06:48:57;;;;;;;2.20;1.15;;;12.20;62.80;;;;;;5052169;28;20103;-47
2021/04/06 06:51:31;;;;;;;3.67;1.50;;;12.40;61.20;;;;;;5062702;28;20507;-48
2021/04/06 06:53:57;;;;;;;4.38;2.00;;;12.80;61.40;;;;;;5073442;28;20100;-49
2021/04/06 06:57:04;;;;;;;3.25;1.60;;;13.00;61.90;;;;;;5073334;28;20116;-46
2021/04/06 06:59:35;;;;;;;4.22;1.58;;;13.80;57.20;;;;;;5065729;28;20033;-49
2021/04/06 07:02:20;;;;;;;5.25;1.60;;;14.70;59.00;;;;;;5072508;28;20029;-47
2021/04/06 07:04:46;;;;;;;3.28;1.50;;;15.10;55.30;;;;;;5073653;28;20017;-45
2021/04/06 07:07:12;;;;;;;3.95;1.70;;;15.60;57.60;;;;;;5072194;28;20021;-46
2021/04/06 07:09:40;;;;;;;2.42;1.15;;;16.20;56.60;;;;;;5073698;28;20021;-49
2021/04/06 07:12:07;;;;;;;4.00;1.73;;;16.80;56.00;;;;;;5073149;28;20031;-50
2021/04/06 07:14:33;;;;;;;3.90;1.40;;;17.20;55.20;;;;;;5073363;28;20024;-48
2021/04/06 07:17:03;;;;;;;3.55;1.63;;;17.50;54.30;;;;;;5072494;28;20039;-46
2021/04/06 07:19:32;;;;;;;4.88;1.60;;;18.00;53.90;;;;;;5073284;28;20024;-46
2021/04/06 07:22:02;;;;;;;5.38;1.50;;;17.20;54.60;;;;;;5073187;28;20376;-45
2021/04/06 07:24:38;;;;;;;5.10;1.77;;;17.30;53.90;;;;;;5073012;28;20028;-46
2021/04/06 07:27:04;;;;;;;;;;;18.20;51.50;;;;;;5073475;28;20016;-48
2021/04/06 07:29:30;;;;;;;4.72;1.50;;;18.80;45.50;;;;;;5072893;28;19920;-45
2021/04/06 07:31:57;;;;;;;4.22;1.60;;;19.10;51.70;;;;;;5072116;28;20024;-44
2021/04/06 07:34:24;;;;;;;1.90;1.20;;;18.80;51.20;;;;;;5072821;28;20036;-45
2021/04/06 07:36:51;;;;;;;3.15;1.70;;;18.00;52.60;;;;;;5073076;28;20024;-45
2021/04/06 07:39:17;;;;;;;2.10;1.50;;;16.50;52.90;;;;;;5072845;28;20536;-47
2021/04/06 07:41:46;;;;;;;3.35;1.70;;;15.00;54.20;;;;;;5072872;28;20028;-46
2021/04/06 07:44:13;;;;;;;5.70;1.90;;;13.90;55.70;;;;;;5072322;28;20020;-46
2021/04/06 07:46:41;;;;;;;2.03;1.63;;;13.10;55.40;;;;;;5072107;28;20017;-48
2021/04/06 07:49:10;;;;;;;4.85;1.92;;;12.40;56.50;;;;;;5072524;28;20471;-48
2021/04/06 07:51:47;;;;;;;5.32;1.98;;;12.40;56.70;;;;;;5071606;28;20414;-47
2021/04/06 07:54:17;;;;;;;7.50;2.35;;;12.00;56.40;;;;;;5072462;28;20095;-46
2021/04/06 07:57:01;;;;;;;3.50;1.73;;;12.50;56.40;;;;;;5072499;28;20040;-45
2021/04/06 07:59:27;;;;;;;4.47;2.00;;;13.20;55.30;;;;;;5062590;28;20017;-44
2021/04/06 08:01:58;;;;;;;3.97;1.98;;;13.30;55.10;;;;;;5051786;28;20483;-48
2021/04/06 08:04:46;;;;;;;6.03;2.08;;;13.00;55.00;;;;;;5052353;28;20025;-46
2021/04/06 08:07:20;;;;;;;4.63;1.52;;;12.30;54.90;;;;;;5052285;28;20033;-46
2021/04/06 08:09:47;;;;;;;4.78;1.45;;;11.90;55.70;;;;;;5052537;28;20048;-44
2021/04/06 08:12:32;;;;;;;5.28;1.55;;;11.70;56.50;;;;;;5052384;28;20383;-46
2021/04/06 08:15:00;;;;;;;6.80;1.95;;;11.60;56.60;;;;;;5052269;28;20028;-44
2021/04/06 08:17:29;;;;;;;6.82;1.60;;;11.80;56.50;;;;;;5051098;28;20029;-44
2021/04/06 08:19:55;;;;;;;3.72;1.95;;;12.00;56.30;;;;;;5052351;28;20024;-44
2021/04/06 08:22:57;;;;;;;4.18;1.92;;;12.20;56.20;;;;;;5052237;28;20040;-45
2021/04/06 08:25:23;;;;;;;2.45;1.15;;;12.10;55.30;;;;;;5048393;28;20395;-45
2021/04/06 08:27:54;;;;;;;5.15;1.58;;;11.80;56.00;;;;;;5052116;28;20024;-44
2021/04/06 08:30:19;;;;;;;6.00;1.60;;;11.40;56.60;;;;;;5051496;28;20021;-45
2021/04/06 08:33:00;;;;;;;5.13;1.75;;;11.20;57.00;;;;;;5052040;28;20017;-46
2021/04/06 08:35:52;;;;;;;6.18;2.20;;;11.70;56.20;;;;;;5051910;28;20071;-44
2021/04/06 08:38:25;;;;;;;6.60;2.17;;;11.90;55.10;;;;;;5070358;28;20036;-44
2021/04/06 08:40:58;;;;;;;4.15;1.83;;;11.40;56.50;;;;;;5076445;28;20032;-43
2021/04/06 08:43:32;;;;;;;2.95;1.23;;;10.70;57.10;;;;;;5075885;28;20028;-46
2021/04/06 08:46:10;;;;;;;4.10;1.73;;;10.20;58.20;;;;;;5075450;28;20035;-43
2021/04/06 08:48:45;;;;;;;6.00;2.50;;;9.70;59.00;;;;;;5075716;28;20097;-46
2021/04/06 08:51:33;;;;;;;4.43;2.00;;;9.20;59.70;;;;;;5076129;28;20492;-41
2021/04/06 08:54:20;;;;;;;3.88;1.67;;;8.90;60.20;;;;;;5076095;28;20111;-41
2021/04/06 08:56:58;;;;;;;3.42;1.92;;;8.60;60.90;;;;;;5075984;28;20250;-42
2021/04/06 08:59:32;;;;;;;5.05;1.73;;;8.50;61.30;;;;;;5075640;28;20033;-41
2021/04/06 09:02:16;;;;;;;5.63;2.30;;;8.40;61.50;;;;;;5074941;28;20024;-41
2021/04/06 09:04:43;;;;;;;4.32;2.35;;;8.80;61.50;;;;;;5076595;28;20032;-41
2021/04/06 09:07:34;;;;;;;6.50;2.10;;;8.80;61.20;;;;;;5075808;28;20031;-41
2021/04/06 09:10:07;;;;;;;4.80;1.80;;;8.90;61.20;;;;;;5075761;28;20229;-42
2021/04/06 09:12:36;;;;;;;3.72;1.88;;;9.00;61.10;;;;;;5075377;28;20020;-43
2021/04/06 09:15:04;;;;;;;5.78;1.90;;;9.50;60.60;;;;;;5073956;28;20365;-41
2021/04/06 09:17:32;;;;;;;7.07;2.50;;;9.70;60.10;;;;;;5074621;28;20036;-41
2021/04/06 09:20:07;;;;;;;8.48;2.15;;;9.60;60.00;;;;;;5075280;28;20025;-41
2021/04/06 09:22:32;;;;;;;7.55;2.20;;;9.20;60.40;;;;;;5075297;28;20035;-40
2021/04/06 09:25:11;;;;;;;3.53;1.80;;;9.50;60.90;;;;;;5075442;28;20388;-44
2021/04/06 09:27:47;;;;;;;5.10;1.58;;;9.80;60.10;;;;;;5075320;28;20024;-41
2021/04/06 09:30:13;;;;;;;;;;;9.80;59.70;;;;;;5074484;28;20034;-41
2021/04/06 09:32:39;;;;;;;13.67;3.20;;;10.10;59.60;;;;;;5074350;28;19916;-41
2021/04/06 09:35:05;;;;;;;5.13;1.98;;;10.20;58.80;;;;;;5075127;28;20039;-41
2021/04/06 09:37:30;;;;;;;6.50;2.05;;;10.20;58.90;;;;;;5075385;28;20051;-42
2021/04/06 09:39:57;;;;;;;8.30;2.45;;;10.20;58.90;;;;;;5075181;28;20039;-41
2021/04/06 09:42:23;;;;;;;7.57;2.90;;;10.40;58.70;;;;;;5075082;28;20103;-41
2021/04/06 09:44:51;;;;;;;4.90;2.42;;;10.30;58.70;;;;;;5074948;28;20128;-42
2021/04/06 09:47:19;;;;;;;3.95;2.10;;;9.90;59.10;;;;;;5074028;28;20032;-41
2021/04/06 09:49:49;;;;;;;7.50;2.50;;;10.10;59.20;;;;;;5074866;28;20099;-41
2021/04/06 09:52:27;;;;;;;8.80;2.78;;;10.80;58.50;;;;;;5074874;28;20024;-41
2021/04/06 09:54:56;;;;;;;6.38;2.20;;;11.60;56.70;;;;;;5074839;28;20356;-41
2021/04/06 09:57:32;;;;;;;6.25;2.22;;;11.60;56.40;;;;;;5074708;28;20017;-42
2021/04/06 09:59:58;;;;;;;5.80;2.20;;;11.10;56.40;;;;;;5074857;28;20032;-41
2021/04/06 10:02:27;;;;;;;6.53;2.28;;;10.90;56.60;;;;;;5073642;28;20024;-45
2021/04/06 10:04:53;;;;;;;5.82;2.40;;;10.70;57.00;;;;;;5074793;28;20025;-41
2021/04/06 10:07:28;;;;;;;4.88;2.00;;;10.40;57.50;;;;;;5074721;28;20025;-40
2021/04/06 10:09:54;;;;;;;5.78;2.15;;;10.10;57.70;;;;;;5074633;28;20062;-40
2021/04/06 10:12:22;;;;;;;5.55;2.58;;;9.80;58.20;;;;;;5074384;28;20096;-41
2021/04/06 10:14:49;;;;;;;9.57;2.25;;;9.80;58.60;;;;;;5074674;28;20428;-40
2021/04/06 10:17:20;;;;;;;6.68;2.72;;;9.70;58.60;;;;;;5073557;28;20027;-40
2021/04/06 10:19:59;;;;;;;5.40;1.83;;;9.60;58.50;;;;;;5074538;28;20031;-40
2021/04/06 10:22:26;;;;;;;6.50;2.60;;;9.60;58.70;;;;;;5072999;28;20475;-40
2021/04/06 10:24:57;;;;;;;8.10;2.50;;;9.70;58.70;;;;;;5074149;28;20028;-41
2021/04/06 10:27:52;;;;;;;3.40;1.60;;;9.80;58.70;;;;;;5074231;28;20483;-41
2021/04/06 10:30:26;;;;;;;6.80;2.15;;;9.80;58.40;;;;;;5067933;28;20040;-43
2021/04/06 10:33:09;;;;;;;7.25;1.85;;;9.60;58.70;;;;;;5066345;28;20415;-41
2021/04/06 10:35:41;;;;;;;4.60;1.60;;;9.50;58.80;;;;;;5078412;28;20108;-41
2021/04/06 10:38:18;;;;;;;4.88;2.05;;;9.60;58.80;;;;;;5072422;28;20024;-40
2021/04/06 10:40:44;;;;;;;4.93;1.75;;;9.40;58.30;;;;;;5066821;28;20077;-42
2021/04/06 10:43:14;;;;;;;3.72;1.50;;;9.30;58.80;;;;;;5092567;28;20039;-40
2021/04/06 10:45:44;;;;;;;7.75;1.85;;;9.30;59.00;;;;;;5091117;28;20108;-40
2021/04/06 10:48:19;;;;;;;5.90;1.80;;;9.30;59.00;;;;;;5080092;28;20032;-40
2021/04/06 10:50:57;;;;;;;4.57;1.77;;;9.40;58.80;;;;;;5071830;28;20489;-40
2021/04/06 10:53:22;;;;;;;6.85;1.75;;;9.50;58.70;;;;;;5072147;28;20025;-40
2021/04/06 10:55:53;;;;;;;2.80;1.45;;;9.50;58.60;;;;;;5071580;28;20070;-40
2021/04/06 10:58:33;;;;;;;6.82;1.95;;;9.70;58.60;;;;;;5072119;28;20043;-40
2021/04/06 11:01:08;;;;;;;4.13;1.80;;;10.00;58.10;;;;;;5090598;28;20028;-41
2021/04/06 11:03:49;;;;;;;6.72;1.80;;;10.00;58.00;;;;;;5091557;28;20074;-42
2021/04/06 11:06:43;;;;;;;3.30;1.65;;;10.10;57.40;;;;;;5061770;28;20040;-43
2021/04/06 11:09:11;;;;;;;7.47;1.63;;;10.20;57.30;;;;;;5069097;28;20036;-41
2021/04/06 11:11:37;;;;;;;6.95;1.92;;;10.10;57.60;;;;;;5071444;28;20021;-42
2021/04/06 11:14:05;;;;;;;8.35;1.80;;;9.80;58.10;;;;;;5071709;28;20104;-41
2021/04/06 11:16:32;;;;;;;12.23;2.80;;;9.50;58.40;;;;;;5070594;28;20103;-45
2021/04/06 11:19:16;;;;;;;5.28;1.95;;;9.10;59.40;;;;;;5071477;28;20468;-41
2021/04/06 11:21:49;;;;;;;6.78;1.95;;;8.70;61.60;;;;;;5071244;28;20403;-41
2021/04/06 11:24:16;;;;;;;4.55;1.80;;;8.40;62.80;;;;;;5071441;28;20029;-42
2021/04/06 11:26:43;;;;;;;3.95;1.83;;;8.20;63.30;;;;;;5075552;28;20051;-41
2021/04/06 11:29:11;;;;;;;4.53;1.75;;;8.40;63.80;;;;;;5091579;28;20521;-44
2021/04/06 11:31:38;;;;;;;3.60;1.38;;;8.50;63.50;;;;;;5074468;28;20024;-41
2021/04/06 11:34:06;;;;;;;4.15;1.38;;;8.70;63.40;;;;;;5071212;28;20028;-45
2021/04/06 11:36:32;;;;;;;6.78;2.38;;;9.00;63.30;;;;;;5071170;28;20032;-42
2021/04/06 11:38:57;;;;;;;4.22;1.85;;;9.40;63.30;;;;;;5071269;28;20033;-41
2021/04/06 11:41:23;;;;;;;7.97;2.08;;;9.80;63.10;;;;;;5071160;28;20040;-41
2021/04/06 11:43:49;;;;;;;4.60;1.90;;;10.10;62.60;;;;;;5070925;28;20024;-42
2021/04/06 11:46:16;;;;;;;10.60;2.40;;;10.60;61.50;;;;;;5070019;28;20032;-41
2021/04/06 11:48:42;;;;;;;4.55;1.60;;;10.70;60.20;;;;;;5070903;28;20059;-41
2021/04/06 11:51:09;;;;;;;4.82;2.10;;;10.80;60.50;;;;;;5071008;28;20519;-43
2021/04/06 11:53:34;;;;;;;5.72;2.25;;;10.60;61.00;;;;;;5070623;28;20048;-43
2021/04/06 11:56:00;;;;;;;7.75;2.60;;;10.40;61.30;;;;;;5070737;28;20075;-42
2021/04/06 11:58:26;;;;;;;6.55;2.28;;;10.20;61.90;;;;;;5071107;28;20040;-42
2021/04/06 12:00:51;;;;;;;5.82;1.90;;;10.10;62.20;;;;;;5069802;28;20077;-42
2021/04/06 12:03:17;;;;;;;9.18;1.90;;;10.30;62.40;;;;;;5070572;28;20384;-44
2021/04/06 12:05:43;;;;;;;4.47;1.40;;;10.50;60.50;;;;;;5068792;28;20024;-42
2021/04/06 12:08:09;;;;;;;5.55;2.40;;;10.90;59.70;;;;;;5080135;28;20472;-42
2021/04/06 12:10:35;;;;;;;6.78;1.55;;;11.10;58.60;;;;;;5070380;28;20038;-42
2021/04/06 12:13:01;;;;;;;2.78;1.35;;;11.00;56.90;;;;;;5069556;28;20035;-43
2021/04/06 12:15:27;;;;;;;4.82;2.15;;;10.70;57.60;;;;;;5069621;28;20036;-42
2021/04/06 12:17:52;;;;;;;5.18;1.95;;;10.00;59.70;;;;;;5070700;28;20097;-42
2021/04/06 12:20:19;;;;;;;6.80;1.80;;;9.10;62.80;;;;;;5070637;28;20036;-43
2021/04/06 12:22:45;;;;;;;6.30;1.52;;;8.40;66.40;;;;;;5070383;28;20025;-44
2021/04/06 12:25:11;;;;;;;3.65;1.02;;;7.60;69.20;;;;;;5070560;28;20415;-43
2021/04/06 12:27:37;;;;;;;5.10;1.17;;;6.90;71.00;;;;;;5070338;28;20456;-42
2021/04/06 12:30:04;;;;;;;2.25;0.80;;;6.50;73.20;;;;;;5070428;28;20167;-44
2021/04/06 12:32:31;;;;;;;2.83;0.80;;;6.10;74.00;;;;;;5069638;28;20112;-42
2021/04/06 12:34:56;;;;;;;2.53;0.90;;;6.00;74.30;;;;;;5087929;28;20489;-41
2021/04/06 12:37:22;;;;;;;5.15;1.48;;;5.90;73.70;;;;;;5090782;28;20020;-41
2021/04/06 12:39:48;;;;;;;2.83;1.10;;;5.90;73.70;;;;;;5090339;28;20533;-43
2021/04/06 12:42:14;;;;;;;5.00;1.45;;;6.10;72.70;;;;;;5090401;28;20029;-44
2021/04/06 12:44:40;;;;;;;2.75;1.50;;;6.30;73.20;;;;;;5090386;28;20070;-43
2021/04/06 12:47:07;;;;;;;2.60;1.30;;;6.70;71.90;;;;;;5089664;28;20032;-44
2021/04/06 12:49:32;;;;;;;1.10;0.90;;;7.20;71.00;;;;;;5090105;28;20107;-43
2021/04/06 12:51:58;;;;;;;4.30;1.10;;;7.70;69.40;;;;;;5075946;28;20511;-42
2021/04/06 12:54:23;;;;;;;3.13;0.85;;;8.10;68.30;;;;;;5070456;28;20020;-42
2021/04/06 12:56:50;;;;;;;4.22;1.20;;;8.50;67.60;;;;;;5069903;28;20412;-44
2021/04/06 12:59:16;;;;;;;2.45;1.10;;;8.70;66.80;;;;;;5070201;28;20029;-43
2021/04/06 13:01:41;;;;;;;3.03;1.23;;;8.80;66.60;;;;;;5070714;28;20027;-42
2021/04/06 13:04:07;;;;;;;4.88;1.38;;;9.00;65.20;;;;;;5071862;28;20107;-42
2021/04/06 13:06:36;;;;;;;5.40;1.63;;;9.20;65.10;;;;;;5071854;28;20062;-43
2021/04/06 13:09:01;;;;;;;2.63;1.58;;;9.50;64.20;;;;;;5071718;28;20043;-43